sensor_id;sensor_type;location;lat;lon;timestamp;P1;durP1;ratioP1;P2;durP2;ratioP2
3267;SDS011;1646;52.450;13.326;2022-08-21T00:02:53;6.33;;;5.83;;
3267;SDS011;1646;52.450;13.326;2022-08-21T00:07:53;7.23;;;6.73;;
3267;SDS011;1646;52.450;13.326;2022-08-21T00:12:53;6.40;;;5.83;;
3267;SDS011;1646;52.450;13.326;2022-08-21T00:17:51;6.87;;;6.27;;
3267;SDS011;1646;52.450;13.326;2022-08-21T00:22:50;8.00;;;7.30;;
3267;SDS011;1646;52.450;13.326;2022-08-21T00:27:49;7.53;;;5.90;;
3267;SDS011;1646;52.450;13.326;2022-08-21T00:32:48;7.63;;;6.93;;
3267;SDS011;1646;52.450;13.326;2022-08-21T00:37:46;6.83;;;6.40;;
3267;SDS011;1646;52.450;13.326;2022-08-21T00:42:44;7.00;;;6.30;;
3267;SDS011;1646;52.450;13.326;2022-08-21T00:47:50;6.30;;;5.90;;
3267;SDS011;1646;52.450;13.326;2022-08-21T00:52:51;9.40;;;6.83;;
3267;SDS011;1646;52.450;13.326;2022-08-21T00:57:51;9.00;;;6.70;;
3267;SDS011;1646;52.450;13.326;2022-08-21T01:02:52;6.90;;;6.30;;
3267;SDS011;1646;52.450;13.326;2022-08-21T01:07:50;7.50;;;6.90;;
3267;SDS011;1646;52.450;13.326;2022-08-21T01:12:50;7.23;;;6.53;;
3267;SDS011;1646;52.450;13.326;2022-08-21T01:17:49;7.10;;;6.60;;
3267;SDS011;1646;52.450;13.326;2022-08-21T01:22:49;7.57;;;6.87;;
3267;SDS011;1646;52.450;13.326;2022-08-21T01:27:48;8.50;;;7.80;;
3267;SDS011;1646;52.450;13.326;2022-08-21T01:32:46;7.83;;;7.03;;
3267;SDS011;1646;52.450;13.326;2022-08-21T01:37:46;7.97;;;7.10;;
3267;SDS011;1646;52.450;13.326;2022-08-21T01:42:46;7.17;;;6.57;;
3267;SDS011;1646;52.450;13.326;2022-08-21T01:47:45;7.00;;;6.40;;
3267;SDS011;1646;52.450;13.326;2022-08-21T01:52:43;7.90;;;7.10;;
3267;SDS011;1646;52.450;13.326;2022-08-21T01:57:41;8.07;;;7.37;;
3267;SDS011;1646;52.450;13.326;2022-08-21T02:02:41;5.77;;;5.20;;
3267;SDS011;1646;52.450;13.326;2022-08-21T02:07:41;7.63;;;5.90;;
3267;SDS011;1646;52.450;13.326;2022-08-21T02:12:41;6.33;;;5.93;;
3267;SDS011;1646;52.450;13.326;2022-08-21T02:17:42;5.67;;;5.17;;
3267;SDS011;1646;52.450;13.326;2022-08-21T02:22:42;4.67;;;4.30;;
3267;SDS011;1646;52.450;13.326;2022-08-21T02:27:42;9.90;;;4.67;;
3267;SDS011;1646;52.450;13.326;2022-08-21T02:32:44;5.03;;;4.20;;
3267;SDS011;1646;52.450;13.326;2022-08-21T02:37:43;4.40;;;4.00;;
3267;SDS011;1646;52.450;13.326;2022-08-21T02:42:43;5.30;;;4.77;;
3267;SDS011;1646;52.450;13.326;2022-08-21T02:47:47;5.43;;;4.93;;
3267;SDS011;1646;52.450;13.326;2022-08-21T02:52:46;4.83;;;4.40;;
3267;SDS011;1646;52.450;13.326;2022-08-21T02:57:51;4.33;;;4.00;;
3267;SDS011;1646;52.450;13.326;2022-08-21T03:02:51;4.40;;;4.00;;
3267;SDS011;1646;52.450;13.326;2022-08-21T03:07:49;7.00;;;4.20;;
3267;SDS011;1646;52.450;13.326;2022-08-21T03:12:48;5.97;;;3.70;;
3267;SDS011;1646;52.450;13.326;2022-08-21T03:17:46;3.83;;;3.40;;
3267;SDS011;1646;52.450;13.326;2022-08-21T03:22:46;3.50;;;3.03;;
3267;SDS011;1646;52.450;13.326;2022-08-21T03:27:48;5.33;;;3.50;;
3267;SDS011;1646;52.450;13.326;2022-08-21T03:32:52;3.87;;;3.27;;
3267;SDS011;1646;52.450;13.326;2022-08-21T03:37:53;5.00;;;3.70;;
3267;SDS011;1646;52.450;13.326;2022-08-21T03:42:52;6.27;;;4.07;;
3267;SDS011;1646;52.450;13.326;2022-08-21T03:47:50;5.93;;;4.00;;
3267;SDS011;1646;52.450;13.326;2022-08-21T03:52:54;3.60;;;3.40;;
3267;SDS011;1646;52.450;13.326;2022-08-21T03:57:53;5.67;;;3.30;;
3267;SDS011;1646;52.450;13.326;2022-08-21T04:02:52;4.50;;;3.20;;
3267;SDS011;1646;52.450;13.326;2022-08-21T04:07:50;7.17;;;3.33;;
3267;SDS011;1646;52.450;13.326;2022-08-21T04:12:49;4.70;;;3.57;;
3267;SDS011;1646;52.450;13.326;2022-08-21T04:17:48;4.17;;;3.20;;
3267;SDS011;1646;52.450;13.326;2022-08-21T04:22:46;6.20;;;3.80;;
3267;SDS011;1646;52.450;13.326;2022-08-21T04:27:44;3.20;;;3.00;;
3267;SDS011;1646;52.450;13.326;2022-08-21T04:32:44;11.60;;;4.87;;
3267;SDS011;1646;52.450;13.326;2022-08-21T04:37:45;5.73;;;2.93;;
3267;SDS011;1646;52.450;13.326;2022-08-21T04:42:44;7.60;;;3.70;;
3267;SDS011;1646;52.450;13.326;2022-08-21T04:47:46;5.87;;;3.10;;
3267;SDS011;1646;52.450;13.326;2022-08-21T04:52:48;6.80;;;3.30;;
3267;SDS011;1646;52.450;13.326;2022-08-21T04:57:46;4.40;;;3.00;;
3267;SDS011;1646;52.450;13.326;2022-08-21T05:02:49;5.23;;;3.70;;
3267;SDS011;1646;52.450;13.326;2022-08-21T05:07:50;5.90;;;3.27;;
3267;SDS011;1646;52.450;13.326;2022-08-21T05:12:50;5.03;;;2.83;;
3267;SDS011;1646;52.450;13.326;2022-08-21T05:17:49;3.77;;;3.13;;
3267;SDS011;1646;52.450;13.326;2022-08-21T05:22:56;5.10;;;3.50;;
3267;SDS011;1646;52.450;13.326;2022-08-21T05:27:55;8.93;;;3.27;;
3267;SDS011;1646;52.450;13.326;2022-08-21T05:32:57;5.03;;;3.17;;
3267;SDS011;1646;52.450;13.326;2022-08-21T05:37:56;3.73;;;2.50;;
3267;SDS011;1646;52.450;13.326;2022-08-21T05:42:56;8.43;;;3.70;;
3267;SDS011;1646;52.450;13.326;2022-08-21T05:47:55;5.07;;;3.03;;
3267;SDS011;1646;52.450;13.326;2022-08-21T05:52:54;3.10;;;2.73;;
3267;SDS011;1646;52.450;13.326;2022-08-21T05:58:02;4.80;;;3.17;;
3267;SDS011;1646;52.450;13.326;2022-08-21T06:03:00;3.87;;;3.33;;
3267;SDS011;1646;52.450;13.326;2022-08-21T06:08:00;5.00;;;2.97;;
3267;SDS011;1646;52.450;13.326;2022-08-21T06:12:58;5.37;;;2.90;;
3267;SDS011;1646;52.450;13.326;2022-08-21T06:17:56;3.10;;;2.83;;
3267;SDS011;1646;52.450;13.326;2022-08-21T06:22:54;9.53;;;3.33;;
3267;SDS011;1646;52.450;13.326;2022-08-21T06:27:59;3.37;;;3.00;;
3267;SDS011;1646;52.450;13.326;2022-08-21T06:32:58;5.70;;;2.70;;
3267;SDS011;1646;52.450;13.326;2022-08-21T06:37:56;6.47;;;3.67;;
3267;SDS011;1646;52.450;13.326;2022-08-21T06:42:56;3.87;;;2.93;;
3267;SDS011;1646;52.450;13.326;2022-08-21T06:47:56;5.23;;;3.47;;
3267;SDS011;1646;52.450;13.326;2022-08-21T06:52:58;7.70;;;3.13;;
3267;SDS011;1646;52.450;13.326;2022-08-21T06:57:58;4.10;;;2.60;;
3267;SDS011;1646;52.450;13.326;2022-08-21T07:02:57;5.80;;;2.40;;
3267;SDS011;1646;52.450;13.326;2022-08-21T07:07:55;5.60;;;2.57;;
3267;SDS011;1646;52.450;13.326;2022-08-21T07:12:54;6.83;;;2.57;;
3267;SDS011;1646;52.450;13.326;2022-08-21T07:17:58;10.97;;;3.20;;
3267;SDS011;1646;52.450;13.326;2022-08-21T07:22:57;12.53;;;3.40;;
3267;SDS011;1646;52.450;13.326;2022-08-21T07:27:59;5.60;;;2.63;;
3267;SDS011;1646;52.450;13.326;2022-08-21T07:32:58;6.90;;;2.80;;
3267;SDS011;1646;52.450;13.326;2022-08-21T07:37:56;6.00;;;2.50;;
3267;SDS011;1646;52.450;13.326;2022-08-21T07:42:55;5.97;;;2.87;;
3267;SDS011;1646;52.450;13.326;2022-08-21T07:47:53;10.63;;;3.07;;
3267;SDS011;1646;52.450;13.326;2022-08-21T07:52:54;9.07;;;2.17;;
3267;SDS011;1646;52.450;13.326;2022-08-21T07:57:52;5.67;;;1.93;;
3267;SDS011;1646;52.450;13.326;2022-08-21T08:02:51;3.47;;;2.13;;
3267;SDS011;1646;52.450;13.326;2022-08-21T08:07:50;7.13;;;2.03;;
3267;SDS011;1646;52.450;13.326;2022-08-21T08:12:50;3.87;;;2.07;;
3267;SDS011;1646;52.450;13.326;2022-08-21T08:17:51;2.67;;;2.07;;
3267;SDS011;1646;52.450;13.326;2022-08-21T08:22:49;3.77;;;1.80;;
3267;SDS011;1646;52.450;13.326;2022-08-21T08:27:47;4.33;;;1.80;;
3267;SDS011;1646;52.450;13.326;2022-08-21T08:32:47;6.83;;;2.70;;
3267;SDS011;1646;52.450;13.326;2022-08-21T08:37:45;3.87;;;2.30;;
3267;SDS011;1646;52.450;13.326;2022-08-21T08:42:48;4.37;;;2.23;;
3267;SDS011;1646;52.450;13.326;2022-08-21T08:47:49;5.57;;;2.50;;
3267;SDS011;1646;52.450;13.326;2022-08-21T08:52:54;6.70;;;2.40;;
3267;SDS011;1646;52.450;13.326;2022-08-21T08:57:59;10.50;;;2.63;;
3267;SDS011;1646;52.450;13.326;2022-08-21T09:03:00;6.00;;;2.37;;
3267;SDS011;1646;52.450;13.326;2022-08-21T09:08:10;5.37;;;2.23;;
3267;SDS011;1646;52.450;13.326;2022-08-21T09:13:30;4.60;;;2.37;;
3267;SDS011;1646;52.450;13.326;2022-08-21T09:18:42;7.30;;;2.20;;
3267;SDS011;1646;52.450;13.326;2022-08-21T09:23:52;3.90;;;2.80;;
3267;SDS011;1646;52.450;13.326;2022-08-21T09:28:58;8.30;;;2.33;;
3267;SDS011;1646;52.450;13.326;2022-08-21T09:33:58;6.00;;;2.30;;
3267;SDS011;1646;52.450;13.326;2022-08-21T09:38:58;9.10;;;2.73;;
3267;SDS011;1646;52.450;13.326;2022-08-21T09:43:56;5.30;;;2.43;;
3267;SDS011;1646;52.450;13.326;2022-08-21T09:48:56;11.77;;;2.70;;
3267;SDS011;1646;52.450;13.326;2022-08-21T09:54:00;3.63;;;2.20;;
3267;SDS011;1646;52.450;13.326;2022-08-21T09:59:19;5.10;;;2.47;;
3267;SDS011;1646;52.450;13.326;2022-08-21T10:04:22;8.30;;;2.20;;
3267;SDS011;1646;52.450;13.326;2022-08-21T10:09:28;4.30;;;2.13;;
3267;SDS011;1646;52.450;13.326;2022-08-21T10:14:32;3.87;;;1.80;;
3267;SDS011;1646;52.450;13.326;2022-08-21T10:19:40;5.63;;;1.90;;
3267;SDS011;1646;52.450;13.326;2022-08-21T10:24:47;7.13;;;1.80;;
3267;SDS011;1646;52.450;13.326;2022-08-21T10:29:56;4.10;;;1.93;;
3267;SDS011;1646;52.450;13.326;2022-08-21T10:34:59;2.03;;;1.20;;
3267;SDS011;1646;52.450;13.326;2022-08-21T10:40:12;5.07;;;2.17;;
3267;SDS011;1646;52.450;13.326;2022-08-21T10:45:20;2.90;;;1.30;;
3267;SDS011;1646;52.450;13.326;2022-08-21T10:50:30;2.83;;;1.50;;
3267;SDS011;1646;52.450;13.326;2022-08-21T10:55:34;2.27;;;1.40;;
3267;SDS011;1646;52.450;13.326;2022-08-21T11:00:39;3.33;;;1.47;;
3267;SDS011;1646;52.450;13.326;2022-08-21T11:05:41;4.67;;;1.50;;
3267;SDS011;1646;52.450;13.326;2022-08-21T11:10:48;2.33;;;1.27;;
3267;SDS011;1646;52.450;13.326;2022-08-21T11:15:56;2.30;;;1.40;;
3267;SDS011;1646;52.450;13.326;2022-08-21T11:21:12;3.13;;;1.30;;
3267;SDS011;1646;52.450;13.326;2022-08-21T11:26:18;3.70;;;2.10;;
3267;SDS011;1646;52.450;13.326;2022-08-21T11:31:25;2.23;;;1.20;;
3267;SDS011;1646;52.450;13.326;2022-08-21T11:36:34;1.80;;;1.37;;
3267;SDS011;1646;52.450;13.326;2022-08-21T11:41:46;2.13;;;1.23;;
3267;SDS011;1646;52.450;13.326;2022-08-21T11:46:54;2.80;;;1.67;;
3267;SDS011;1646;52.450;13.326;2022-08-21T11:51:59;4.03;;;1.33;;
3267;SDS011;1646;52.450;13.326;2022-08-21T11:57:08;1.80;;;1.40;;
3267;SDS011;1646;52.450;13.326;2022-08-21T12:02:15;3.10;;;1.47;;
3267;SDS011;1646;52.450;13.326;2022-08-21T12:07:17;1.60;;;1.17;;
3267;SDS011;1646;52.450;13.326;2022-08-21T12:12:29;1.33;;;1.10;;
3267;SDS011;1646;52.450;13.326;2022-08-21T12:17:34;3.57;;;1.47;;
3267;SDS011;1646;52.450;13.326;2022-08-21T12:22:37;2.83;;;1.43;;
3267;SDS011;1646;52.450;13.326;2022-08-21T12:27:44;2.13;;;1.20;;
3267;SDS011;1646;52.450;13.326;2022-08-21T12:32:45;1.30;;;1.17;;
3267;SDS011;1646;52.450;13.326;2022-08-21T12:37:52;3.27;;;1.27;;
3267;SDS011;1646;52.450;13.326;2022-08-21T12:42:58;1.57;;;1.17;;
3267;SDS011;1646;52.450;13.326;2022-08-21T12:47:59;4.47;;;1.50;;
3267;SDS011;1646;52.450;13.326;2022-08-21T12:53:04;3.60;;;1.80;;
3267;SDS011;1646;52.450;13.326;2022-08-21T12:58:18;8.40;;;1.73;;
3267;SDS011;1646;52.450;13.326;2022-08-21T13:03:16;2.90;;;1.43;;
3267;SDS011;1646;52.450;13.326;2022-08-21T13:08:15;3.03;;;1.40;;
3267;SDS011;1646;52.450;13.326;2022-08-21T13:13:18;3.80;;;1.77;;
3267;SDS011;1646;52.450;13.326;2022-08-21T13:18:27;4.13;;;1.70;;
3267;SDS011;1646;52.450;13.326;2022-08-21T13:23:28;5.50;;;2.10;;
3267;SDS011;1646;52.450;13.326;2022-08-21T13:28:33;2.87;;;1.80;;
3267;SDS011;1646;52.450;13.326;2022-08-21T13:33:34;2.80;;;1.40;;
3267;SDS011;1646;52.450;13.326;2022-08-21T13:38:34;4.90;;;1.90;;
3267;SDS011;1646;52.450;13.326;2022-08-21T13:43:35;3.53;;;1.30;;
3267;SDS011;1646;52.450;13.326;2022-08-21T13:48:34;2.73;;;1.73;;
3267;SDS011;1646;52.450;13.326;2022-08-21T13:53:35;3.97;;;2.00;;
3267;SDS011;1646;52.450;13.326;2022-08-21T13:58:44;2.60;;;1.90;;
3267;SDS011;1646;52.450;13.326;2022-08-21T14:03:44;3.73;;;2.00;;
3267;SDS011;1646;52.450;13.326;2022-08-21T14:08:47;3.07;;;1.80;;
3267;SDS011;1646;52.450;13.326;2022-08-21T14:13:51;9.17;;;2.23;;
3267;SDS011;1646;52.450;13.326;2022-08-21T14:19:07;5.93;;;2.10;;
3267;SDS011;1646;52.450;13.326;2022-08-21T14:24:08;6.73;;;1.90;;
3267;SDS011;1646;52.450;13.326;2022-08-21T14:29:09;4.70;;;1.97;;
3267;SDS011;1646;52.450;13.326;2022-08-21T14:34:11;7.87;;;2.83;;
3267;SDS011;1646;52.450;13.326;2022-08-21T14:39:15;4.93;;;2.03;;
3267;SDS011;1646;52.450;13.326;2022-08-21T14:44:15;6.13;;;2.10;;
3267;SDS011;1646;52.450;13.326;2022-08-21T14:49:14;3.73;;;1.87;;
3267;SDS011;1646;52.450;13.326;2022-08-21T14:54:12;5.53;;;2.30;;
3267;SDS011;1646;52.450;13.326;2022-08-21T14:59:10;3.97;;;1.80;;
3267;SDS011;1646;52.450;13.326;2022-08-21T15:04:10;5.43;;;2.03;;
3267;SDS011;1646;52.450;13.326;2022-08-21T15:09:08;14.33;;;2.40;;
3267;SDS011;1646;52.450;13.326;2022-08-21T15:14:06;7.23;;;2.40;;
3267;SDS011;1646;52.450;13.326;2022-08-21T15:19:06;5.90;;;2.47;;
3267;SDS011;1646;52.450;13.326;2022-08-21T15:24:05;3.80;;;2.00;;
3267;SDS011;1646;52.450;13.326;2022-08-21T15:29:04;6.60;;;1.90;;
3267;SDS011;1646;52.450;13.326;2022-08-21T15:34:04;3.77;;;1.70;;
3267;SDS011;1646;52.450;13.326;2022-08-21T15:39:02;4.67;;;2.40;;
3267;SDS011;1646;52.450;13.326;2022-08-21T15:44:02;4.87;;;2.30;;
3267;SDS011;1646;52.450;13.326;2022-08-21T15:49:00;11.77;;;2.70;;
3267;SDS011;1646;52.450;13.326;2022-08-21T15:53:58;6.10;;;2.50;;
3267;SDS011;1646;52.450;13.326;2022-08-21T15:58:57;5.47;;;2.43;;
3267;SDS011;1646;52.450;13.326;2022-08-21T16:03:59;6.40;;;1.93;;
3267;SDS011;1646;52.450;13.326;2022-08-21T16:08:57;5.87;;;2.70;;
3267;SDS011;1646;52.450;13.326;2022-08-21T16:13:56;3.93;;;2.23;;
3267;SDS011;1646;52.450;13.326;2022-08-21T16:18:54;6.20;;;2.57;;
3267;SDS011;1646;52.450;13.326;2022-08-21T16:23:53;5.33;;;2.27;;
3267;SDS011;1646;52.450;13.326;2022-08-21T16:28:52;8.23;;;2.50;;
3267;SDS011;1646;52.450;13.326;2022-08-21T16:33:54;6.70;;;2.47;;
3267;SDS011;1646;52.450;13.326;2022-08-21T16:38:56;5.57;;;2.57;;
3267;SDS011;1646;52.450;13.326;2022-08-21T16:43:55;6.90;;;2.40;;
3267;SDS011;1646;52.450;13.326;2022-08-21T16:48:53;6.60;;;2.50;;
3267;SDS011;1646;52.450;13.326;2022-08-21T16:53:51;3.33;;;2.40;;
3267;SDS011;1646;52.450;13.326;2022-08-21T16:58:51;9.07;;;2.13;;
3267;SDS011;1646;52.450;13.326;2022-08-21T17:03:51;3.43;;;2.00;;
3267;SDS011;1646;52.450;13.326;2022-08-21T17:08:51;2.67;;;2.13;;
3267;SDS011;1646;52.450;13.326;2022-08-21T17:13:51;3.63;;;1.97;;
3267;SDS011;1646;52.450;13.326;2022-08-21T17:18:49;6.10;;;2.80;;
3267;SDS011;1646;52.450;13.326;2022-08-21T17:23:50;5.63;;;1.70;;
3267;SDS011;1646;52.450;13.326;2022-08-21T17:28:48;4.27;;;2.40;;
3267;SDS011;1646;52.450;13.326;2022-08-21T17:33:51;2.90;;;2.10;;
3267;SDS011;1646;52.450;13.326;2022-08-21T17:38:51;4.50;;;2.10;;
3267;SDS011;1646;52.450;13.326;2022-08-21T17:43:51;4.47;;;2.40;;
3267;SDS011;1646;52.450;13.326;2022-08-21T17:48:51;4.60;;;2.20;;
3267;SDS011;1646;52.450;13.326;2022-08-21T17:53:49;9.00;;;2.33;;
3267;SDS011;1646;52.450;13.326;2022-08-21T17:58:48;3.97;;;2.67;;
3267;SDS011;1646;52.450;13.326;2022-08-21T18:03:49;4.63;;;2.57;;
3267;SDS011;1646;52.450;13.326;2022-08-21T18:08:47;3.13;;;1.73;;
3267;SDS011;1646;52.450;13.326;2022-08-21T18:13:45;4.53;;;2.30;;
3267;SDS011;1646;52.450;13.326;2022-08-21T18:18:43;5.47;;;2.63;;
3267;SDS011;1646;52.450;13.326;2022-08-21T18:23:45;5.30;;;2.63;;
3267;SDS011;1646;52.450;13.326;2022-08-21T18:28:43;4.33;;;2.63;;
3267;SDS011;1646;52.450;13.326;2022-08-21T18:33:42;6.00;;;2.50;;
3267;SDS011;1646;52.450;13.326;2022-08-21T18:38:55;5.97;;;2.77;;
3267;SDS011;1646;52.450;13.326;2022-08-21T18:44:14;5.60;;;2.73;;
3267;SDS011;1646;52.450;13.326;2022-08-21T18:49:14;6.10;;;3.00;;
3267;SDS011;1646;52.450;13.326;2022-08-21T18:54:15;6.90;;;3.70;;
3267;SDS011;1646;52.450;13.326;2022-08-21T18:59:13;5.90;;;3.53;;
3267;SDS011;1646;52.450;13.326;2022-08-21T19:04:12;6.30;;;3.73;;
3267;SDS011;1646;52.450;13.326;2022-08-21T19:09:32;8.00;;;3.77;;
3267;SDS011;1646;52.450;13.326;2022-08-21T19:14:30;6.67;;;3.87;;
3267;SDS011;1646;52.450;13.326;2022-08-21T19:19:28;10.40;;;4.73;;
3267;SDS011;1646;52.450;13.326;2022-08-21T19:24:27;5.57;;;4.47;;
3267;SDS011;1646;52.450;13.326;2022-08-21T19:29:28;7.80;;;4.70;;
3267;SDS011;1646;52.450;13.326;2022-08-21T19:34:46;6.77;;;4.00;;
3267;SDS011;1646;52.450;13.326;2022-08-21T19:39:46;8.43;;;4.63;;
3267;SDS011;1646;52.450;13.326;2022-08-21T19:44:47;8.07;;;4.77;;
3267;SDS011;1646;52.450;13.326;2022-08-21T19:49:53;6.60;;;4.70;;
3267;SDS011;1646;52.450;13.326;2022-08-21T19:54:54;9.97;;;4.60;;
3267;SDS011;1646;52.450;13.326;2022-08-21T19:59:53;7.30;;;5.13;;
3267;SDS011;1646;52.450;13.326;2022-08-21T20:04:52;6.93;;;4.57;;
3267;SDS011;1646;52.450;13.326;2022-08-21T20:09:50;9.17;;;4.40;;
3267;SDS011;1646;52.450;13.326;2022-08-21T20:14:48;6.07;;;4.20;;
3267;SDS011;1646;52.450;13.326;2022-08-21T20:19:48;9.93;;;5.43;;
3267;SDS011;1646;52.450;13.326;2022-08-21T20:24:50;12.83;;;6.00;;
3267;SDS011;1646;52.450;13.326;2022-08-21T20:29:50;8.07;;;5.33;;
3267;SDS011;1646;52.450;13.326;2022-08-21T20:34:50;10.73;;;5.23;;
3267;SDS011;1646;52.450;13.326;2022-08-21T20:40:09;16.77;;;5.07;;
3267;SDS011;1646;52.450;13.326;2022-08-21T20:45:09;9.10;;;5.50;;
3267;SDS011;1646;52.450;13.326;2022-08-21T20:50:10;8.93;;;5.87;;
3267;SDS011;1646;52.450;13.326;2022-08-21T20:55:14;13.83;;;5.73;;
3267;SDS011;1646;52.450;13.326;2022-08-21T21:00:24;10.10;;;6.40;;
3267;SDS011;1646;52.450;13.326;2022-08-21T21:05:27;8.27;;;4.77;;
3267;SDS011;1646;52.450;13.326;2022-08-21T21:10:29;8.83;;;5.30;;
3267;SDS011;1646;52.450;13.326;2022-08-21T21:15:31;10.80;;;5.73;;
3267;SDS011;1646;52.450;13.326;2022-08-21T21:20:34;11.87;;;5.90;;
3267;SDS011;1646;52.450;13.326;2022-08-21T21:25:43;14.00;;;6.60;;
3267;SDS011;1646;52.450;13.326;2022-08-21T21:30:49;7.03;;;5.20;;
3267;SDS011;1646;52.450;13.326;2022-08-21T21:35:56;17.80;;;6.20;;
3267;SDS011;1646;52.450;13.326;2022-08-21T21:41:01;7.90;;;5.33;;
3267;SDS011;1646;52.450;13.326;2022-08-21T21:46:15;8.73;;;6.07;;
3267;SDS011;1646;52.450;13.326;2022-08-21T21:51:25;11.53;;;6.30;;
3267;SDS011;1646;52.450;13.326;2022-08-21T21:56:36;10.30;;;6.40;;
3267;SDS011;1646;52.450;13.326;2022-08-21T22:01:40;7.53;;;6.00;;
3267;SDS011;1646;52.450;13.326;2022-08-21T22:06:50;10.57;;;5.67;;
3267;SDS011;1646;52.450;13.326;2022-08-21T22:11:58;8.53;;;5.57;;
3267;SDS011;1646;52.450;13.326;2022-08-21T22:17:06;11.87;;;5.97;;
3267;SDS011;1646;52.450;13.326;2022-08-21T22:22:14;8.20;;;5.63;;
3267;SDS011;1646;52.450;13.326;2022-08-21T22:27:17;11.47;;;6.37;;
3267;SDS011;1646;52.450;13.326;2022-08-21T22:32:22;8.73;;;6.50;;
3267;SDS011;1646;52.450;13.326;2022-08-21T22:37:25;10.30;;;6.40;;
3267;SDS011;1646;52.450;13.326;2022-08-21T22:42:31;7.70;;;5.80;;
3267;SDS011;1646;52.450;13.326;2022-08-21T22:47:30;8.60;;;5.13;;
3267;SDS011;1646;52.450;13.326;2022-08-21T22:52:34;9.10;;;6.93;;
3267;SDS011;1646;52.450;13.326;2022-08-21T22:57:33;13.70;;;6.67;;
3267;SDS011;1646;52.450;13.326;2022-08-21T23:02:36;8.73;;;6.30;;
3267;SDS011;1646;52.450;13.326;2022-08-21T23:07:41;8.63;;;6.23;;
3267;SDS011;1646;52.450;13.326;2022-08-21T23:13:01;9.40;;;7.30;;
3267;SDS011;1646;52.450;13.326;2022-08-21T23:18:05;10.40;;;6.70;;
3267;SDS011;1646;52.450;13.326;2022-08-21T23:23:12;11.37;;;7.00;;
3267;SDS011;1646;52.450;13.326;2022-08-21T23:28:21;12.53;;;6.67;;
3267;SDS011;1646;52.450;13.326;2022-08-21T23:33:30;15.47;;;6.90;;
3267;SDS011;1646;52.450;13.326;2022-08-21T23:38:46;12.87;;;7.97;;
3267;SDS011;1646;52.450;13.326;2022-08-21T23:43:57;11.87;;;6.23;;
3267;SDS011;1646;52.450;13.326;2022-08-21T23:49:02;7.73;;;6.30;;
3267;SDS011;1646;52.450;13.326;2022-08-21T23:54:15;11.80;;;6.77;;
3267;SDS011;1646;52.450;13.326;2022-08-21T23:59:20;7.97;;;5.83;;
